sensor_id;sensor_type;location;lat;lon;timestamp;temperature;humidity
55016;DHT22;40919;43.236;21.590;2022-10-16T00:02:01;256.00;2252.80
55016;DHT22;40919;43.236;21.590;2022-10-16T00:04:27;256.20;2252.80
55016;DHT22;40919;43.236;21.590;2022-10-16T00:06:53;256.10;2252.80
55016;DHT22;40919;43.236;21.590;2022-10-16T01:03:58;230.80;2252.80
55016;DHT22;40919;43.236;21.590;2022-10-16T01:06:44;230.70;2252.80
55016;DHT22;40919;43.236;21.590;2022-10-16T01:12:12;205.70;2252.80
55016;DHT22;40919;43.236;21.590;2022-10-16T01:20:33;230.80;2252.80
55016;DHT22;40919;43.236;21.590;2022-10-16T01:29:07;230.90;2252.80
55016;DHT22;40919;43.236;21.590;2022-10-16T01:31:37;230.60;2252.80
55016;DHT22;40919;43.236;21.590;2022-10-16T01:34:15;230.40;2252.80
55016;DHT22;40919;43.236;21.590;2022-10-16T01:36:47;230.70;2252.80
55016;DHT22;40919;43.236;21.590;2022-10-16T01:39:20;230.80;2252.80
55016;DHT22;40919;43.236;21.590;2022-10-16T01:41:57;230.80;2252.80
55016;DHT22;40919;43.236;21.590;2022-10-16T01:44:32;230.90;2252.80
55016;DHT22;40919;43.236;21.590;2022-10-16T01:46:59;231.00;2252.80
55016;DHT22;40919;43.236;21.590;2022-10-16T01:49:31;231.10;2252.80
55016;DHT22;40919;43.236;21.590;2022-10-16T01:51:59;231.10;2252.80
55016;DHT22;40919;43.236;21.590;2022-10-16T01:54:28;231.20;2252.80
55016;DHT22;40919;43.236;21.590;2022-10-16T01:56:56;231.10;2252.80
55016;DHT22;40919;43.236;21.590;2022-10-16T01:59:25;230.90;2252.80
55016;DHT22;40919;43.236;21.590;2022-10-16T02:01:58;231.00;2252.80
55016;DHT22;40919;43.236;21.590;2022-10-16T02:04:32;231.10;2252.80
55016;DHT22;40919;43.236;21.590;2022-10-16T02:06:59;230.90;2252.80
55016;DHT22;40919;43.236;21.590;2022-10-16T02:09:25;230.90;2252.80
55016;DHT22;40919;43.236;21.590;2022-10-16T02:11:53;230.90;2252.80
55016;DHT22;40919;43.236;21.590;2022-10-16T02:14:21;230.50;2252.80
55016;DHT22;40919;43.236;21.590;2022-10-16T02:16:50;205.70;2252.80
55016;DHT22;40919;43.236;21.590;2022-10-16T02:19:17;230.50;2252.80
55016;DHT22;40919;43.236;21.590;2022-10-16T02:21:58;230.60;2252.80
55016;DHT22;40919;43.236;21.590;2022-10-16T02:24:31;230.80;2252.80
55016;DHT22;40919;43.236;21.590;2022-10-16T02:27:17;230.90;2252.80
55016;DHT22;40919;43.236;21.590;2022-10-16T02:29:49;230.90;2252.80
55016;DHT22;40919;43.236;21.590;2022-10-16T02:47:02;230.90;2252.80
55016;DHT22;40919;43.236;21.590;2022-10-16T03:06:30;231.00;2252.80
55016;DHT22;40919;43.236;21.590;2022-10-16T03:08:56;230.60;2252.80
55016;DHT22;40919;43.236;21.590;2022-10-16T03:11:22;230.60;2252.80
55016;DHT22;40919;43.236;21.590;2022-10-16T03:13:48;230.40;2252.80
55016;DHT22;40919;43.236;21.590;2022-10-16T03:16:13;205.70;2252.80
55016;DHT22;40919;43.236;21.590;2022-10-16T03:18:39;230.40;2252.80
55016;DHT22;40919;43.236;21.590;2022-10-16T03:21:05;230.50;2252.80
55016;DHT22;40919;43.236;21.590;2022-10-16T03:23:31;230.50;2252.80
55016;DHT22;40919;43.236;21.590;2022-10-16T03:25:56;230.60;2252.80
55016;DHT22;40919;43.236;21.590;2022-10-16T03:28:22;230.40;2252.80
55016;DHT22;40919;43.236;21.590;2022-10-16T03:30:48;205.70;2252.80
55016;DHT22;40919;43.236;21.590;2022-10-16T03:33:14;205.60;2252.80
55016;DHT22;40919;43.236;21.590;2022-10-16T03:47:51;230.70;2252.80
55016;DHT22;40919;43.236;21.590;2022-10-16T03:50:17;230.60;2252.80
55016;DHT22;40919;43.236;21.590;2022-10-16T03:52:43;230.60;2252.80
55016;DHT22;40919;43.236;21.590;2022-10-16T03:55:09;230.50;2252.80
55016;DHT22;40919;43.236;21.590;2022-10-16T03:57:34;205.70;2252.80
55016;DHT22;40919;43.236;21.590;2022-10-16T04:00:00;230.40;2252.80
55016;DHT22;40919;43.236;21.590;2022-10-16T04:02:26;230.50;2252.80
55016;DHT22;40919;43.236;21.590;2022-10-16T04:04:52;230.60;2252.80
55016;DHT22;40919;43.236;21.590;2022-10-16T04:07:18;230.60;2252.80
55016;DHT22;40919;43.236;21.590;2022-10-16T04:09:44;230.60;2252.80
55016;DHT22;40919;43.236;21.590;2022-10-16T04:12:09;230.60;2252.80
55016;DHT22;40919;43.236;21.590;2022-10-16T04:14:35;230.40;2252.80
55016;DHT22;40919;43.236;21.590;2022-10-16T04:17:01;230.60;2252.80
55016;DHT22;40919;43.236;21.590;2022-10-16T04:19:27;230.60;2252.80
55016;DHT22;40919;43.236;21.590;2022-10-16T04:21:52;230.50;2252.80
55016;DHT22;40919;43.236;21.590;2022-10-16T04:24:18;230.50;2252.80
55016;DHT22;40919;43.236;21.590;2022-10-16T04:26:44;230.60;2252.80
55016;DHT22;40919;43.236;21.590;2022-10-16T04:29:10;230.60;2252.80
55016;DHT22;40919;43.236;21.590;2022-10-16T04:31:35;230.60;2252.80
55016;DHT22;40919;43.236;21.590;2022-10-16T04:34:01;230.50;2252.80
55016;DHT22;40919;43.236;21.590;2022-10-16T04:36:27;205.70;2252.80
55016;DHT22;40919;43.236;21.590;2022-10-16T05:13:07;205.60;2252.80
55016;DHT22;40919;43.236;21.590;2022-10-16T05:22:52;205.70;2252.80
55016;DHT22;40919;43.236;21.590;2022-10-16T05:25:18;205.30;2252.80
55016;DHT22;40919;43.236;21.590;2022-10-16T05:27:47;205.10;2252.80
55016;DHT22;40919;43.236;21.590;2022-10-16T05:30:14;204.90;2252.80
55016;DHT22;40919;43.236;21.590;2022-10-16T05:32:40;205.00;2252.80
55016;DHT22;40919;43.236;21.590;2022-10-16T05:35:06;204.80;2252.80
55016;DHT22;40919;43.236;21.590;2022-10-16T05:37:32;205.10;2252.80
55016;DHT22;40919;43.236;21.590;2022-10-16T05:39:57;205.30;2252.80
55016;DHT22;40919;43.236;21.590;2022-10-16T05:42:23;205.20;2252.80
55016;DHT22;40919;43.236;21.590;2022-10-16T05:44:49;205.30;2252.80
55016;DHT22;40919;43.236;21.590;2022-10-16T05:47:15;205.40;2252.80
55016;DHT22;40919;43.236;21.590;2022-10-16T05:49:41;205.50;2252.80
55016;DHT22;40919;43.236;21.590;2022-10-16T05:52:06;205.40;2252.80
55016;DHT22;40919;43.236;21.590;2022-10-16T05:54:32;205.50;2252.80
55016;DHT22;40919;43.236;21.590;2022-10-16T05:56:58;205.50;2252.80
55016;DHT22;40919;43.236;21.590;2022-10-16T05:59:24;205.70;2252.80
55016;DHT22;40919;43.236;21.590;2022-10-16T06:01:49;205.70;2252.80
55016;DHT22;40919;43.236;21.590;2022-10-16T06:04:15;205.50;2252.80
55016;DHT22;40919;43.236;21.590;2022-10-16T06:06:41;205.70;2252.80
55016;DHT22;40919;43.236;21.590;2022-10-16T06:09:07;205.70;2252.80
55016;DHT22;40919;43.236;21.590;2022-10-16T06:11:33;230.40;2252.80
55016;DHT22;40919;43.236;21.590;2022-10-16T06:14:00;205.70;2252.80
55016;DHT22;40919;43.236;21.590;2022-10-16T06:16:28;230.50;2252.80
55016;DHT22;40919;43.236;21.590;2022-10-16T06:18:55;205.70;2252.80
55016;DHT22;40919;43.236;21.590;2022-10-16T06:21:26;230.50;2252.80
55016;DHT22;40919;43.236;21.590;2022-10-16T06:23:53;230.50;2252.80
55016;DHT22;40919;43.236;21.590;2022-10-16T06:26:23;230.50;2252.80
55016;DHT22;40919;43.236;21.590;2022-10-16T06:28:49;230.60;2252.80
55016;DHT22;40919;43.236;21.590;2022-10-16T06:31:16;230.70;2252.80
55016;DHT22;40919;43.236;21.590;2022-10-16T06:33:43;230.60;2252.80
55016;DHT22;40919;43.236;21.590;2022-10-16T06:36:15;230.70;2252.80
55016;DHT22;40919;43.236;21.590;2022-10-16T06:38:42;230.70;2252.80
55016;DHT22;40919;43.236;21.590;2022-10-16T06:41:14;230.50;2252.80
55016;DHT22;40919;43.236;21.590;2022-10-16T06:43:41;230.60;2252.80
55016;DHT22;40919;43.236;21.590;2022-10-16T06:46:09;230.70;2252.80
55016;DHT22;40919;43.236;21.590;2022-10-16T06:48:35;230.70;2252.80
55016;DHT22;40919;43.236;21.590;2022-10-16T06:51:07;230.90;2252.80
55016;DHT22;40919;43.236;21.590;2022-10-16T06:53:35;230.90;2252.80
55016;DHT22;40919;43.236;21.590;2022-10-16T06:56:16;231.00;2252.80
55016;DHT22;40919;43.236;21.590;2022-10-16T06:58:43;231.00;2252.80
55016;DHT22;40919;43.236;21.590;2022-10-16T07:01:10;231.00;2252.80
55016;DHT22;40919;43.236;21.590;2022-10-16T07:03:37;231.20;2252.80
55016;DHT22;40919;43.236;21.590;2022-10-16T07:06:05;231.30;2252.80
55016;DHT22;40919;43.236;21.590;2022-10-16T07:08:36;256.00;2252.80
55016;DHT22;40919;43.236;21.590;2022-10-16T07:11:05;256.10;2252.80
55016;DHT22;40919;43.236;21.590;2022-10-16T07:13:36;256.20;2252.80
55016;DHT22;40919;43.236;21.590;2022-10-16T07:18:35;256.50;2252.80
55016;DHT22;40919;43.236;21.590;2022-10-16T07:21:10;256.70;2252.80
55016;DHT22;40919;43.236;21.590;2022-10-16T07:23:37;256.80;2252.80
55016;DHT22;40919;43.236;21.590;2022-10-16T07:26:04;256.90;2252.80
55016;DHT22;40919;43.236;21.590;2022-10-16T07:28:31;256.90;2252.80
55016;DHT22;40919;43.236;21.590;2022-10-16T07:31:09;256.90;2252.80
55016;DHT22;40919;43.236;21.590;2022-10-16T07:33:39;256.90;2252.80
55016;DHT22;40919;43.236;21.590;2022-10-16T07:36:07;256.90;2252.80
55016;DHT22;40919;43.236;21.590;2022-10-16T07:38:33;281.60;2278.40
55016;DHT22;40919;43.236;21.590;2022-10-16T07:41:03;281.70;2278.40
55016;DHT22;40919;43.236;21.590;2022-10-16T07:43:30;281.70;2278.40
55016;DHT22;40919;43.236;21.590;2022-10-16T07:45:56;281.80;2278.40
55016;DHT22;40919;43.236;21.590;2022-10-16T07:48:23;281.90;2278.40
55016;DHT22;40919;43.236;21.590;2022-10-16T07:50:49;282.10;2278.40
55016;DHT22;40919;43.236;21.590;2022-10-16T07:55:41;282.20;2278.40
55016;DHT22;40919;43.236;21.590;2022-10-16T07:58:07;282.30;2278.40
55016;DHT22;40919;43.236;21.590;2022-10-16T08:00:35;282.50;2278.40
55016;DHT22;40919;43.236;21.590;2022-10-16T08:03:01;282.50;2278.40
55016;DHT22;40919;43.236;21.590;2022-10-16T08:05:31;307.30;2304.00
55016;DHT22;40919;43.236;21.590;2022-10-16T08:07:57;307.40;2304.00
55016;DHT22;40919;43.236;21.590;2022-10-16T08:10:25;307.60;2304.00
55016;DHT22;40919;43.236;21.590;2022-10-16T08:12:52;307.80;2304.00
55016;DHT22;40919;43.236;21.590;2022-10-16T08:15:19;307.70;2304.00
55016;DHT22;40919;43.236;21.590;2022-10-16T08:17:53;307.90;2304.00
55016;DHT22;40919;43.236;21.590;2022-10-16T08:20:19;308.00;2304.00
55016;DHT22;40919;43.236;21.590;2022-10-16T08:22:45;332.80;2329.60
55016;DHT22;40919;43.236;21.590;2022-10-16T08:25:11;333.00;2329.60
55016;DHT22;40919;43.236;21.590;2022-10-16T08:27:36;333.00;2329.60
55016;DHT22;40919;43.236;21.590;2022-10-16T08:30:02;333.00;2329.60
55016;DHT22;40919;43.236;21.590;2022-10-16T08:32:28;333.10;2329.60
55016;DHT22;40919;43.236;21.590;2022-10-16T08:34:54;333.10;2329.60
55016;DHT22;40919;43.236;21.590;2022-10-16T08:37:20;333.30;2329.60
55016;DHT22;40919;43.236;21.590;2022-10-16T08:39:46;333.40;2329.60
55016;DHT22;40919;43.236;21.590;2022-10-16T08:55:38;358.80;2329.60
55016;DHT22;40919;43.236;21.590;2022-10-16T08:58:15;358.70;2329.60
55016;DHT22;40919;43.236;21.590;2022-10-16T09:14:13;384.20;2329.60
55016;DHT22;40919;43.236;21.590;2022-10-16T09:19:37;384.40;2329.60
55016;DHT22;40919;43.236;21.590;2022-10-16T09:22:14;384.30;2329.60
55016;DHT22;40919;43.236;21.590;2022-10-16T09:24:40;384.30;2329.60
55016;DHT22;40919;43.236;21.590;2022-10-16T09:27:11;384.30;2329.60
55016;DHT22;40919;43.236;21.590;2022-10-16T09:29:38;384.40;2329.60
55016;DHT22;40919;43.236;21.590;2022-10-16T11:27:09;538.30;2304.00
55016;DHT22;40919;43.236;21.590;2022-10-16T11:29:49;538.10;2304.00
55016;DHT22;40919;43.236;21.590;2022-10-16T11:37:46;563.90;2201.60
55016;DHT22;40919;43.236;21.590;2022-10-16T11:45:26;588.90;2048.00
55016;DHT22;40919;43.236;21.590;2022-10-16T11:55:43;589.60;1945.60
55016;DHT22;40919;43.236;21.590;2022-10-16T14:15:48;563.60;1894.40
55016;DHT22;40919;43.236;21.590;2022-10-16T14:18:22;563.40;1894.40
55016;DHT22;40919;43.236;21.590;2022-10-16T14:38:26;538.10;1894.40
55016;DHT22;40919;43.236;21.590;2022-10-16T14:40:52;538.00;1868.80
55016;DHT22;40919;43.236;21.590;2022-10-16T15:02:58;512.80;1945.60
55016;DHT22;40919;43.236;21.590;2022-10-16T15:10:20;512.30;2022.40
55016;DHT22;40919;43.236;21.590;2022-10-16T15:12:47;512.20;2073.60
55016;DHT22;40919;43.236;21.590;2022-10-16T15:22:43;487.30;2124.80
55016;DHT22;40919;43.236;21.590;2022-10-16T15:25:31;487.00;2150.40
55016;DHT22;40919;43.236;21.590;2022-10-16T15:27:58;486.90;2176.00
55016;DHT22;40919;43.236;21.590;2022-10-16T15:47:29;461.50;2329.60
55016;DHT22;40919;43.236;21.590;2022-10-16T15:49:55;461.40;2329.60
55016;DHT22;40919;43.236;21.590;2022-10-16T15:52:21;461.20;2355.20
55016;DHT22;40919;43.236;21.590;2022-10-16T15:54:47;461.10;2380.80
55016;DHT22;40919;43.236;21.590;2022-10-16T15:57:12;461.00;2380.80
55016;DHT22;40919;43.236;21.590;2022-10-16T15:59:38;460.80;2380.80
55016;DHT22;40919;43.236;21.590;2022-10-16T16:02:04;436.10;2355.20
55016;DHT22;40919;43.236;21.590;2022-10-16T16:04:30;436.00;2355.20
55016;DHT22;40919;43.236;21.590;2022-10-16T16:06:56;436.10;2355.20
55016;DHT22;40919;43.236;21.590;2022-10-16T16:09:22;436.00;2355.20
55016;DHT22;40919;43.236;21.590;2022-10-16T16:11:49;435.90;2355.20
55016;DHT22;40919;43.236;21.590;2022-10-16T16:14:16;435.90;2355.20
55016;DHT22;40919;43.236;21.590;2022-10-16T16:16:42;435.80;2355.20
55016;DHT22;40919;43.236;21.590;2022-10-16T16:19:08;435.60;2355.20
55016;DHT22;40919;43.236;21.590;2022-10-16T16:21:35;435.60;2355.20
55016;DHT22;40919;43.236;21.590;2022-10-16T16:24:01;435.30;2355.20
55016;DHT22;40919;43.236;21.590;2022-10-16T16:26:33;435.40;2355.20
55016;DHT22;40919;43.236;21.590;2022-10-16T16:29:03;435.50;2355.20
55016;DHT22;40919;43.236;21.590;2022-10-16T16:31:30;435.30;2355.20
55016;DHT22;40919;43.236;21.590;2022-10-16T16:33:57;435.20;2355.20
55016;DHT22;40919;43.236;21.590;2022-10-16T16:36:23;410.40;2355.20
55016;DHT22;40919;43.236;21.590;2022-10-16T16:38:50;410.20;2355.20
55016;DHT22;40919;43.236;21.590;2022-10-16T16:41:19;410.20;2355.20
55016;DHT22;40919;43.236;21.590;2022-10-16T16:43:45;410.20;2355.20
55016;DHT22;40919;43.236;21.590;2022-10-16T16:46:13;410.10;2355.20
55016;DHT22;40919;43.236;21.590;2022-10-16T16:48:39;409.90;2355.20
55016;DHT22;40919;43.236;21.590;2022-10-16T16:51:06;410.00;2355.20
55016;DHT22;40919;43.236;21.590;2022-10-16T16:53:35;410.00;2355.20
55016;DHT22;40919;43.236;21.590;2022-10-16T16:56:03;409.90;2355.20
55016;DHT22;40919;43.236;21.590;2022-10-16T16:58:29;410.00;2355.20
55016;DHT22;40919;43.236;21.590;2022-10-16T17:00:55;409.80;2355.20
55016;DHT22;40919;43.236;21.590;2022-10-16T17:03:21;409.80;2355.20
55016;DHT22;40919;43.236;21.590;2022-10-16T17:06:07;409.90;2355.20
55016;DHT22;40919;43.236;21.590;2022-10-16T17:08:34;409.80;2355.20
55016;DHT22;40919;43.236;21.590;2022-10-16T17:11:00;409.80;2355.20
55016;DHT22;40919;43.236;21.590;2022-10-16T17:13:33;409.70;2355.20
55016;DHT22;40919;43.236;21.590;2022-10-16T17:16:05;384.90;2329.60
55016;DHT22;40919;43.236;21.590;2022-10-16T17:18:31;384.90;2329.60
55016;DHT22;40919;43.236;21.590;2022-10-16T17:21:02;409.70;2355.20
55016;DHT22;40919;43.236;21.590;2022-10-16T17:23:28;384.60;2329.60
55016;DHT22;40919;43.236;21.590;2022-10-16T17:25:54;384.70;2329.60
55016;DHT22;40919;43.236;21.590;2022-10-16T17:28:20;384.70;2329.60
55016;DHT22;40919;43.236;21.590;2022-10-16T17:30:46;384.70;2329.60
55016;DHT22;40919;43.236;21.590;2022-10-16T17:33:13;384.70;2329.60
55016;DHT22;40919;43.236;21.590;2022-10-16T17:35:43;384.40;2329.60
55016;DHT22;40919;43.236;21.590;2022-10-16T17:38:11;384.50;2329.60
55016;DHT22;40919;43.236;21.590;2022-10-16T17:40:37;384.40;2329.60
55016;DHT22;40919;43.236;21.590;2022-10-16T17:43:04;384.90;2329.60
55016;DHT22;40919;43.236;21.590;2022-10-16T17:45:30;384.40;2329.60
55016;DHT22;40919;43.236;21.590;2022-10-16T17:47:58;384.30;2329.60
55016;DHT22;40919;43.236;21.590;2022-10-16T17:50:24;384.30;2329.60
55016;DHT22;40919;43.236;21.590;2022-10-16T17:52:50;384.30;2329.60
55016;DHT22;40919;43.236;21.590;2022-10-16T17:55:16;384.30;2329.60
55016;DHT22;40919;43.236;21.590;2022-10-16T17:57:41;384.20;2329.60
55016;DHT22;40919;43.236;21.590;2022-10-16T18:00:08;384.10;2329.60
55016;DHT22;40919;43.236;21.590;2022-10-16T18:02:34;359.30;2329.60
55016;DHT22;40919;43.236;21.590;2022-10-16T18:05:00;384.10;2329.60
55016;DHT22;40919;43.236;21.590;2022-10-16T18:07:26;384.10;2329.60
55016;DHT22;40919;43.236;21.590;2022-10-16T18:09:52;359.30;2329.60
55016;DHT22;40919;43.236;21.590;2022-10-16T18:12:18;359.30;2329.60
55016;DHT22;40919;43.236;21.590;2022-10-16T18:14:44;359.20;2329.60
55016;DHT22;40919;43.236;21.590;2022-10-16T18:17:09;359.20;2329.60
55016;DHT22;40919;43.236;21.590;2022-10-16T18:26:55;359.20;2329.60
55016;DHT22;40919;43.236;21.590;2022-10-16T18:29:22;359.10;2329.60
55016;DHT22;40919;43.236;21.590;2022-10-16T18:31:48;359.00;2329.60
55016;DHT22;40919;43.236;21.590;2022-10-16T18:34:14;359.00;2329.60
55016;DHT22;40919;43.236;21.590;2022-10-16T18:36:41;359.00;2329.60
55016;DHT22;40919;43.236;21.590;2022-10-16T18:39:08;358.90;2329.60
55016;DHT22;40919;43.236;21.590;2022-10-16T18:41:37;359.00;2329.60
55016;DHT22;40919;43.236;21.590;2022-10-16T18:44:04;358.90;2329.60
55016;DHT22;40919;43.236;21.590;2022-10-16T18:46:30;358.80;2329.60
55016;DHT22;40919;43.236;21.590;2022-10-16T18:48:56;358.70;2329.60
55016;DHT22;40919;43.236;21.590;2022-10-16T18:51:24;358.60;2329.60
55016;DHT22;40919;43.236;21.590;2022-10-16T18:53:53;358.50;2329.60
55016;DHT22;40919;43.236;21.590;2022-10-16T18:56:20;358.60;2329.60
55016;DHT22;40919;43.236;21.590;2022-10-16T18:58:48;358.50;2329.60
55016;DHT22;40919;43.236;21.590;2022-10-16T19:01:17;358.60;2329.60
55016;DHT22;40919;43.236;21.590;2022-10-16T19:03:45;358.60;2329.60
55016;DHT22;40919;43.236;21.590;2022-10-16T19:06:13;358.60;2329.60
55016;DHT22;40919;43.236;21.590;2022-10-16T19:08:40;358.60;2329.60
55016;DHT22;40919;43.236;21.590;2022-10-16T19:11:13;358.60;2329.60
55016;DHT22;40919;43.236;21.590;2022-10-16T19:13:39;358.50;2329.60
55016;DHT22;40919;43.236;21.590;2022-10-16T19:16:20;358.50;2329.60
55016;DHT22;40919;43.236;21.590;2022-10-16T19:18:47;333.60;2329.60
55016;DHT22;40919;43.236;21.590;2022-10-16T19:56:17;333.50;2329.60
55016;DHT22;40919;43.236;21.590;2022-10-16T19:58:44;333.40;2329.60
55016;DHT22;40919;43.236;21.590;2022-10-16T20:01:11;333.30;2329.60
55016;DHT22;40919;43.236;21.590;2022-10-16T20:03:37;333.40;2329.60
55016;DHT22;40919;43.236;21.590;2022-10-16T20:06:06;333.20;2329.60
55016;DHT22;40919;43.236;21.590;2022-10-16T20:08:34;333.20;2329.60
55016;DHT22;40919;43.236;21.590;2022-10-16T20:11:01;333.10;2329.60
55016;DHT22;40919;43.236;21.590;2022-10-16T20:13:27;333.00;2329.60
55016;DHT22;40919;43.236;21.590;2022-10-16T20:15:53;332.90;2329.60
55016;DHT22;40919;43.236;21.590;2022-10-16T20:18:19;333.00;2329.60
55016;DHT22;40919;43.236;21.590;2022-10-16T20:20:47;332.90;2329.60
55016;DHT22;40919;43.236;21.590;2022-10-16T20:23:14;332.90;2329.60
55016;DHT22;40919;43.236;21.590;2022-10-16T20:25:41;308.10;2304.00
55016;DHT22;40919;43.236;21.590;2022-10-16T20:28:09;333.00;2329.60
55016;DHT22;40919;43.236;21.590;2022-10-16T20:30:38;332.80;2329.60
55016;DHT22;40919;43.236;21.590;2022-10-16T20:33:04;308.10;2304.00
55016;DHT22;40919;43.236;21.590;2022-10-16T20:35:37;307.80;2304.00
55016;DHT22;40919;43.236;21.590;2022-10-16T20:52:47;307.20;2304.00
55016;DHT22;40919;43.236;21.590;2022-10-16T20:55:13;307.20;2304.00
55016;DHT22;40919;43.236;21.590;2022-10-16T20:57:41;282.50;2278.40
55016;DHT22;40919;43.236;21.590;2022-10-16T22:35:36;282.10;2278.40
55016;DHT22;40919;43.236;21.590;2022-10-16T22:57:33;281.90;2278.40
55016;DHT22;40919;43.236;21.590;2022-10-16T22:59:58;281.70;2278.40
55016;DHT22;40919;43.236;21.590;2022-10-16T23:04:50;256.90;2252.80
55016;DHT22;40919;43.236;21.590;2022-10-16T23:07:16;256.80;2252.80
55016;DHT22;40919;43.236;21.590;2022-10-16T23:09:42;256.70;2252.80
55016;DHT22;40919;43.236;21.590;2022-10-16T23:12:08;256.60;2252.80
55016;DHT22;40919;43.236;21.590;2022-10-16T23:14:33;256.70;2252.80
55016;DHT22;40919;43.236;21.590;2022-10-16T23:19:25;256.30;2252.80
55016;DHT22;40919;43.236;21.590;2022-10-16T23:21:51;256.40;2252.80
55016;DHT22;40919;43.236;21.590;2022-10-16T23:24:17;256.50;2252.80
55016;DHT22;40919;43.236;21.590;2022-10-16T23:26:43;256.60;2252.80
55016;DHT22;40919;43.236;21.590;2022-10-16T23:29:09;256.50;2252.80
55016;DHT22;40919;43.236;21.590;2022-10-16T23:31:35;256.40;2252.80
55016;DHT22;40919;43.236;21.590;2022-10-16T23:34:00;256.50;2252.80
55016;DHT22;40919;43.236;21.590;2022-10-16T23:36:27;256.30;2252.80
55016;DHT22;40919;43.236;21.590;2022-10-16T23:38:53;256.50;2252.80
55016;DHT22;40919;43.236;21.590;2022-10-16T23:41:19;256.50;2252.80
55016;DHT22;40919;43.236;21.590;2022-10-16T23:43:45;256.60;2252.80
55016;DHT22;40919;43.236;21.590;2022-10-16T23:46:12;256.20;2252.80
55016;DHT22;40919;43.236;21.590;2022-10-16T23:48:38;256.10;2252.80
55016;DHT22;40919;43.236;21.590;2022-10-16T23:51:05;256.00;2252.80
55016;DHT22;40919;43.236;21.590;2022-10-16T23:53:32;256.20;2252.80
55016;DHT22;40919;43.236;21.590;2022-10-16T23:55:58;231.30;2252.80
